Time;durP1;ratioP1;P1;durP2;ratioP2;P2;SDS_P1;SDS_P2;PMS_P1;PMS_P2;Temp;Humidity;BMP_temperature;BMP_pressure;BME280_temperature;BME280_humidity;BME280_pressure;Samples;Min_cycle;Max_cycle;Signal;HPM_P1;HPM_P2
2021/10/17 00:00:22;;;;;;;19.17;15.80;;;6.90;99.90;;;;;;4954461;28;20263;-50
2021/10/17 00:02:49;;;;;;;20.25;14.85;;;7.20;99.90;;;;;;4949022;29;20211;-50
2021/10/17 00:05:20;;;;;;;20.73;16.67;;;7.60;99.90;;;;;;4951744;28;20198;-50
2021/10/17 00:07:46;;;;;;;20.63;16.42;;;7.50;99.90;;;;;;4950697;29;20197;-49
2021/10/17 00:10:18;;;;;;;20.65;15.57;;;7.50;99.90;;;;;;4952280;28;20211;-50
2021/10/17 00:12:44;;;;;;;20.50;16.23;;;7.50;99.90;;;;;;4953178;28;20212;-50
2021/10/17 00:15:14;;;;;;;22.37;16.30;;;7.40;99.90;;;;;;4949777;28;20657;-50
2021/10/17 00:17:40;;;;;;;21.25;15.73;;;7.60;99.90;;;;;;4952337;28;20490;-50
2021/10/17 00:20:08;;;;;;;19.95;15.57;;;7.50;99.90;;;;;;4955838;28;20208;-50
2021/10/17 00:22:34;;;;;;;20.35;16.33;;;7.30;99.90;;;;;;4957501;28;20331;-50
2021/10/17 00:25:00;;;;;;;18.37;16.37;;;7.50;99.90;;;;;;4954275;28;20660;-49
2021/10/17 00:27:25;;;;;;;18.40;15.35;;;7.20;99.90;;;;;;4962511;28;20187;-49
2021/10/17 00:29:51;;;;;;;21.43;15.13;;;7.40;99.90;;;;;;4960769;28;20239;-50
2021/10/17 00:32:16;;;;;;;19.53;16.80;;;7.50;99.90;;;;;;4956956;28;20244;-50
2021/10/17 00:34:43;;;;;;;19.33;15.70;;;7.50;99.90;;;;;;4961007;28;20181;-50
2021/10/17 00:37:09;;;;;;;21.13;16.42;;;7.20;99.90;;;;;;4962867;28;20194;-50
2021/10/17 00:39:35;;;;;;;19.20;14.73;;;7.30;99.90;;;;;;4953814;28;20575;-50
2021/10/17 00:42:04;;;;;;;17.35;15.05;;;7.20;99.90;;;;;;4960782;28;20192;-50
2021/10/17 00:44:31;;;;;;;20.55;15.48;;;7.40;99.90;;;;;;4954436;28;20177;-49
2021/10/17 00:46:56;;;;;;;19.65;16.00;;;7.10;99.90;;;;;;4954013;28;20192;-49
2021/10/17 00:49:22;;;;;;;20.63;15.13;;;7.30;99.90;;;;;;4954921;28;20223;-50
2021/10/17 00:51:48;;;;;;;18.40;14.60;;;7.20;99.90;;;;;;4956883;28;20526;-50
2021/10/17 00:54:14;;;;;;;18.10;15.30;;;7.20;99.90;;;;;;4958995;28;20196;-50
2021/10/17 00:56:41;;;;;;;20.65;15.82;;;7.30;99.90;;;;;;4950902;28;20223;-50
2021/10/17 00:59:08;;;;;;;22.23;16.25;;;7.30;99.90;;;;;;4958960;28;20217;-50
2021/10/17 01:01:35;;;;;;;19.60;15.73;;;7.50;99.90;;;;;;4950910;28;20188;-50
2021/10/17 01:04:01;;;;;;;18.13;15.85;;;7.30;99.90;;;;;;4959668;28;20196;-49
2021/10/17 01:06:27;;;;;;;20.33;15.90;;;7.30;99.90;;;;;;4960473;28;20280;-50
2021/10/17 01:08:53;;;;;;;18.98;15.43;;;7.20;99.90;;;;;;4959750;28;20630;-50
2021/10/17 01:11:18;;;;;;;18.80;15.80;;;7.60;99.90;;;;;;4954552;28;20291;-50
2021/10/17 01:13:44;;;;;;;17.50;15.03;;;7.30;99.90;;;;;;4961574;28;20248;-50
2021/10/17 01:16:09;;;;;;;17.60;14.27;;;7.10;99.90;;;;;;4957148;28;20235;-49
2021/10/17 01:18:35;;;;;;;22.63;15.47;;;7.30;99.90;;;;;;4950776;28;20619;-50
2021/10/17 01:21:01;;;;;;;18.80;15.13;;;7.30;99.90;;;;;;4954816;28;20202;-50
2021/10/17 01:23:27;;;;;;;20.53;15.53;;;6.80;99.90;;;;;;4954663;28;20191;-50
2021/10/17 01:25:53;;;;;;;21.33;17.08;;;7.40;99.90;;;;;;4950208;28;20620;-50
2021/10/17 01:28:19;;;;;;;20.45;15.18;;;7.40;99.90;;;;;;4954167;28;20291;-50
2021/10/17 01:30:45;;;;;;;20.55;16.42;;;7.10;99.90;;;;;;4951683;28;20299;-49
2021/10/17 01:33:11;;;;;;;20.65;16.50;;;7.50;99.90;;;;;;4954491;29;20604;-50
2021/10/17 01:35:37;;;;;;;20.97;16.17;;;7.30;99.90;;;;;;4954346;29;20193;-49
2021/10/17 01:38:04;;;;;;;20.38;16.30;;;7.00;99.90;;;;;;4954678;28;20531;-50
2021/10/17 01:40:30;;;;;;;18.92;15.90;;;7.40;99.90;;;;;;4954358;28;20189;-50
2021/10/17 01:42:56;;;;;;;21.08;17.00;;;7.60;99.90;;;;;;4953251;28;20565;-49
2021/10/17 01:45:22;;;;;;;18.23;15.07;;;7.60;99.90;;;;;;4954049;28;20199;-50
2021/10/17 01:47:49;;;;;;;20.93;16.10;;;7.80;99.90;;;;;;4953702;29;20528;-50
2021/10/17 01:50:15;;;;;;;19.50;16.40;;;7.80;99.90;;;;;;4951783;28;20208;-50
2021/10/17 01:52:40;;;;;;;22.63;17.80;;;7.40;99.90;;;;;;4953314;29;20232;-50
2021/10/17 01:55:07;;;;;;;20.53;16.73;;;7.30;99.90;;;;;;4952977;28;20447;-50
2021/10/17 01:57:32;;;;;;;21.17;17.23;;;7.40;99.90;;;;;;4954771;28;20177;-50
2021/10/17 01:59:58;;;;;;;21.00;17.43;;;7.60;99.90;;;;;;4950920;28;20209;-50
2021/10/17 02:02:24;;;;;;;21.73;16.63;;;7.30;99.90;;;;;;4954158;29;20511;-50
2021/10/17 02:04:49;;;;;;;22.40;16.93;;;7.40;99.90;;;;;;4953494;29;20201;-50
2021/10/17 02:07:15;;;;;;;23.70;18.30;;;7.50;99.90;;;;;;4954228;28;20219;-50
2021/10/17 02:09:40;;;;;;;20.20;17.17;;;7.60;99.90;;;;;;4953762;28;20627;-50
2021/10/17 02:12:07;;;;;;;22.73;18.10;;;7.70;99.90;;;;;;4953557;28;20216;-50
2021/10/17 02:14:34;;;;;;;21.38;17.70;;;7.30;99.90;;;;;;4954132;28;20216;-50
2021/10/17 02:17:00;;;;;;;21.20;17.45;;;7.50;99.90;;;;;;4953905;28;20201;-50
2021/10/17 02:19:26;;;;;;;20.53;15.63;;;7.50;99.90;;;;;;4952365;29;20559;-50
2021/10/17 02:21:51;;;;;;;22.07;17.07;;;7.50;99.90;;;;;;4952310;28;20197;-50
2021/10/17 02:24:17;;;;;;;20.03;17.67;;;7.70;99.90;;;;;;4957647;28;20276;-50
2021/10/17 02:26:42;;;;;;;19.40;17.00;;;7.70;99.90;;;;;;4953538;28;20243;-50
2021/10/17 02:29:08;;;;;;;19.27;15.70;;;7.80;99.90;;;;;;4959711;28;20562;-49
2021/10/17 02:31:33;;;;;;;20.73;16.73;;;7.90;99.90;;;;;;4950345;28;20221;-50
2021/10/17 02:33:59;;;;;;;18.10;14.70;;;7.80;99.90;;;;;;4951874;28;20553;-50
2021/10/17 02:36:25;;;;;;;18.33;14.50;;;7.80;99.90;;;;;;4952786;29;20578;-50
2021/10/17 02:38:50;;;;;;;19.20;15.43;;;7.80;99.90;;;;;;4951938;28;20686;-49
2021/10/17 02:41:16;;;;;;;22.53;15.80;;;7.70;99.90;;;;;;4952369;28;20193;-50
2021/10/17 02:43:41;;;;;;;19.53;15.50;;;7.60;99.90;;;;;;4952155;29;20285;-50
2021/10/17 02:46:07;;;;;;;20.17;16.33;;;7.90;99.90;;;;;;4966476;28;20651;-50
2021/10/17 02:48:33;;;;;;;16.90;15.03;;;8.00;99.90;;;;;;4952544;28;20586;-50
2021/10/17 02:50:59;;;;;;;16.30;14.43;;;8.10;99.90;;;;;;4951463;29;20209;-50
2021/10/17 02:53:25;;;;;;;20.05;15.63;;;8.10;99.90;;;;;;4951922;28;20181;-50
2021/10/17 02:55:51;;;;;;;17.43;14.90;;;8.00;99.90;;;;;;4952988;28;20181;-50
2021/10/17 02:58:16;;;;;;;19.50;14.90;;;8.00;99.90;;;;;;4951319;28;20189;-50
2021/10/17 03:00:42;;;;;;;17.07;14.47;;;7.90;99.90;;;;;;4952338;28;20204;-50
2021/10/17 03:03:07;;;;;;;16.60;13.73;;;8.20;99.90;;;;;;4951847;29;20670;-50
2021/10/17 03:05:33;;;;;;;17.70;15.20;;;8.00;99.90;;;;;;4954391;28;20235;-50
2021/10/17 03:07:58;;;;;;;18.63;15.43;;;8.00;99.90;;;;;;4954250;28;20204;-50
2021/10/17 03:10:24;;;;;;;17.13;14.23;;;8.20;99.90;;;;;;4951854;28;20216;-50
2021/10/17 03:12:50;;;;;;;17.57;15.00;;;8.20;99.90;;;;;;4952130;28;20722;-50
2021/10/17 03:15:16;;;;;;;16.58;14.32;;;8.00;99.90;;;;;;4950111;28;20185;-53
2021/10/17 03:17:41;;;;;;;15.40;13.80;;;8.20;99.90;;;;;;4953171;29;20182;-50
2021/10/17 03:20:09;;;;;;;16.57;14.03;;;8.30;99.90;;;;;;4951848;29;20205;-50
2021/10/17 03:22:35;;;;;;;17.02;14.75;;;8.30;99.90;;;;;;4955994;28;20216;-50
2021/10/17 03:25:01;;;;;;;16.55;14.75;;;8.30;99.90;;;;;;4950632;28;20196;-50
2021/10/17 03:27:27;;;;;;;15.70;14.00;;;8.40;99.90;;;;;;4957526;28;20205;-49
2021/10/17 03:29:52;;;;;;;18.27;15.47;;;8.30;99.90;;;;;;4953392;28;20215;-50
2021/10/17 03:32:18;;;;;;;15.70;14.07;;;8.30;99.90;;;;;;4952016;28;20217;-50
2021/10/17 03:34:44;;;;;;;15.60;14.00;;;8.00;99.90;;;;;;4951890;29;20594;-49
2021/10/17 03:37:09;;;;;;;17.10;14.33;;;8.40;99.90;;;;;;4958934;28;20209;-50
2021/10/17 03:39:35;;;;;;;15.50;13.90;;;8.20;99.90;;;;;;4951425;28;20679;-50
2021/10/17 03:42:00;;;;;;;16.90;14.60;;;8.10;99.90;;;;;;4953345;28;20299;-50
2021/10/17 03:44:26;;;;;;;19.57;14.63;;;8.30;99.90;;;;;;4948250;29;20193;-50
2021/10/17 03:46:51;;;;;;;20.50;15.00;;;8.00;99.90;;;;;;4965620;28;20203;-49
2021/10/17 03:49:17;;;;;;;17.90;14.63;;;7.90;99.90;;;;;;4952038;28;20220;-50
2021/10/17 03:51:42;;;;;;;17.23;15.27;;;7.90;99.90;;;;;;4951033;29;20209;-50
2021/10/17 03:54:08;;;;;;;18.17;15.10;;;7.90;99.90;;;;;;4951576;28;20189;-50
2021/10/17 03:56:34;;;;;;;19.40;15.00;;;7.90;99.90;;;;;;4953159;28;20191;-50
2021/10/17 03:58:59;;;;;;;18.93;16.07;;;8.00;99.90;;;;;;4951151;28;20209;-50
2021/10/17 04:01:25;;;;;;;17.67;14.60;;;7.80;99.90;;;;;;4951556;28;20203;-50
2021/10/17 04:03:51;;;;;;;16.20;14.10;;;7.80;99.90;;;;;;4951582;29;20201;-50
2021/10/17 04:06:16;;;;;;;17.00;13.87;;;7.80;99.90;;;;;;4949504;28;20956;-50
2021/10/17 04:08:43;;;;;;;18.97;15.70;;;8.20;99.90;;;;;;4950548;28;20224;-49
2021/10/17 04:11:08;;;;;;;17.35;15.55;;;8.00;99.90;;;;;;4951670;28;20217;-49
2021/10/17 04:13:34;;;;;;;16.07;14.47;;;8.00;99.90;;;;;;4955255;28;20181;-49
2021/10/17 04:16:00;;;;;;;17.27;15.00;;;8.00;99.90;;;;;;4950744;28;20262;-50
2021/10/17 04:18:26;;;;;;;25.00;21.03;;;7.80;99.90;;;;;;4951390;29;20208;-50
2021/10/17 04:20:51;;;;;;;20.50;16.20;;;7.80;99.90;;;;;;4948746;28;20189;-49
2021/10/17 04:23:17;;;;;;;15.90;13.93;;;7.90;99.90;;;;;;4948941;28;20453;-50
2021/10/17 04:25:42;;;;;;;17.07;15.27;;;7.80;99.90;;;;;;4950750;29;20736;-50
2021/10/17 04:28:08;;;;;;;16.73;14.40;;;8.10;99.90;;;;;;4950207;29;20189;-49
2021/10/17 04:30:33;;;;;;;18.87;14.70;;;8.10;99.90;;;;;;4950546;28;20196;-50
2021/10/17 04:32:59;;;;;;;17.20;14.47;;;8.00;99.90;;;;;;4951268;29;20192;-50
2021/10/17 04:35:25;;;;;;;16.47;14.73;;;7.90;99.90;;;;;;4951171;29;20671;-50
2021/10/17 04:37:50;;;;;;;18.73;14.30;;;7.70;99.90;;;;;;4951267;29;20185;-50
2021/10/17 04:40:17;;;;;;;16.43;13.63;;;8.00;99.90;;;;;;4949158;28;20220;-51
2021/10/17 04:42:43;;;;;;;17.85;15.38;;;7.90;99.90;;;;;;4950546;28;21238;-49
2021/10/17 04:45:10;;;;;;;17.60;14.87;;;8.00;99.90;;;;;;4950800;28;20193;-50
2021/10/17 04:47:35;;;;;;;16.25;14.18;;;8.00;99.90;;;;;;4943523;28;20195;-50
2021/10/17 04:50:01;;;;;;;16.47;14.00;;;7.80;99.90;;;;;;4950258;28;20209;-50
2021/10/17 04:52:27;;;;;;;17.05;14.85;;;7.80;99.90;;;;;;4949885;28;20386;-50
2021/10/17 04:54:52;;;;;;;18.93;15.23;;;7.90;99.90;;;;;;4953525;28;20186;-50
2021/10/17 04:57:18;;;;;;;17.73;13.73;;;8.00;99.90;;;;;;4948332;28;20689;-50
2021/10/17 04:59:44;;;;;;;18.13;15.60;;;7.90;99.90;;;;;;4954900;28;20655;-50
2021/10/17 05:02:09;;;;;;;15.23;12.70;;;7.90;99.90;;;;;;4953039;28;20189;-50
2021/10/17 05:04:36;;;;;;;17.27;13.93;;;7.90;99.90;;;;;;4952799;28;20181;-50
2021/10/17 05:07:02;;;;;;;17.27;15.27;;;8.00;99.90;;;;;;4954940;29;20255;-49
2021/10/17 05:09:27;;;;;;;16.20;14.50;;;8.00;99.90;;;;;;4951411;28;20220;-50
2021/10/17 05:11:53;;;;;;;17.73;14.67;;;8.20;99.90;;;;;;4955132;29;20496;-50
2021/10/17 05:14:19;;;;;;;19.10;15.40;;;7.70;99.90;;;;;;4952907;28;20290;-50
2021/10/17 05:16:44;;;;;;;20.07;15.77;;;8.00;99.90;;;;;;4953590;28;20189;-50
2021/10/17 05:19:10;;;;;;;18.50;15.43;;;8.10;99.90;;;;;;4954819;29;20193;-50
2021/10/17 05:21:35;;;;;;;15.60;13.90;;;8.10;99.90;;;;;;4950708;28;20193;-50
2021/10/17 05:24:01;;;;;;;19.00;15.10;;;8.00;99.90;;;;;;4952632;28;20193;-50
2021/10/17 05:26:27;;;;;;;17.73;15.83;;;8.00;99.90;;;;;;4954524;29;20312;-51
2021/10/17 05:28:52;;;;;;;18.90;16.53;;;8.00;99.90;;;;;;4952139;28;20292;-49
2021/10/17 05:31:18;;;;;;;17.30;15.20;;;7.90;99.90;;;;;;4952663;28;20699;-50
2021/10/17 05:33:44;;;;;;;16.77;15.00;;;8.00;99.90;;;;;;4952133;28;20193;-50
2021/10/17 05:36:12;;;;;;;17.13;15.32;;;8.20;99.90;;;;;;4967774;28;20197;-49
2021/10/17 05:38:38;;;;;;;16.75;14.95;;;8.10;99.90;;;;;;4954450;28;20228;-50
2021/10/17 05:41:04;;;;;;;20.33;16.15;;;8.20;99.90;;;;;;4954210;28;20196;-50
2021/10/17 05:43:30;;;;;;;17.13;14.90;;;8.10;99.90;;;;;;4954668;29;20189;-50
2021/10/17 05:45:56;;;;;;;16.25;14.55;;;8.10;99.90;;;;;;4950024;28;20434;-49
2021/10/17 05:48:21;;;;;;;17.57;15.40;;;8.00;99.90;;;;;;4951712;29;20188;-49
2021/10/17 05:50:47;;;;;;;17.47;14.70;;;8.20;99.90;;;;;;4953657;29;20248;-49
2021/10/17 05:53:13;;;;;;;18.37;15.37;;;8.10;99.90;;;;;;4951740;29;20189;-49
2021/10/17 05:55:39;;;;;;;16.27;14.40;;;7.90;99.90;;;;;;4952944;28;20929;-50
2021/10/17 05:58:05;;;;;;;17.13;15.32;;;7.80;99.90;;;;;;4950024;28;20191;-50
2021/10/17 06:00:30;;;;;;;16.90;15.10;;;8.00;99.90;;;;;;4952522;28;20279;-49
2021/10/17 06:02:56;;;;;;;19.30;16.40;;;7.90;99.90;;;;;;4952074;29;20192;-53
2021/10/17 06:05:22;;;;;;;16.60;14.52;;;7.90;99.90;;;;;;4955324;28;20252;-51
2021/10/17 06:07:48;;;;;;;19.80;15.73;;;8.00;99.90;;;;;;4952432;28;20204;-52
2021/10/17 06:10:14;;;;;;;20.30;16.20;;;8.10;99.90;;;;;;4951275;28;20200;-53
2021/10/17 06:12:40;;;;;;;18.30;15.47;;;8.10;99.90;;;;;;4953942;28;20209;-52
2021/10/17 06:15:08;;;;;;;18.42;15.57;;;8.30;99.90;;;;;;4950815;28;20524;-51
2021/10/17 06:17:34;;;;;;;17.00;15.20;;;8.20;99.90;;;;;;4949708;29;20252;-52
2021/10/17 06:20:00;;;;;;;17.58;15.65;;;8.10;99.90;;;;;;4951517;28;20769;-52
2021/10/17 06:22:26;;;;;;;15.83;14.20;;;8.20;99.90;;;;;;4950930;29;20279;-53
2021/10/17 06:24:52;;;;;;;19.77;15.00;;;8.30;99.90;;;;;;4952797;28;20467;-52
2021/10/17 06:27:17;;;;;;;17.57;15.73;;;8.50;99.90;;;;;;4950069;29;20201;-52
2021/10/17 06:29:43;;;;;;;16.47;14.60;;;8.50;99.90;;;;;;4953026;28;20691;-54
2021/10/17 06:32:10;;;;;;;13.82;12.52;;;8.60;99.90;;;;;;4951580;28;20233;-52
2021/10/17 06:34:35;;;;;;;14.60;13.13;;;8.50;99.90;;;;;;4952143;29;20189;-53
2021/10/17 06:37:01;;;;;;;14.67;13.03;;;8.60;99.90;;;;;;4967253;28;20185;-53
2021/10/17 06:39:27;;;;;;;15.50;13.90;;;8.70;99.90;;;;;;4952593;29;20325;-53
2021/10/17 06:41:53;;;;;;;14.97;13.50;;;8.80;99.90;;;;;;4951983;28;20671;-52
2021/10/17 06:44:19;;;;;;;15.63;13.97;;;8.90;99.90;;;;;;4953654;29;20651;-55
2021/10/17 06:46:45;;;;;;;14.68;12.68;;;8.70;99.90;;;;;;4956320;28;20199;-55
2021/10/17 06:49:11;;;;;;;14.48;12.75;;;8.80;99.90;;;;;;4951097;28;20209;-55
2021/10/17 06:51:36;;;;;;;15.63;12.80;;;8.70;99.90;;;;;;4947910;28;20237;-55
2021/10/17 06:54:02;;;;;;;15.20;12.80;;;8.90;99.90;;;;;;4950724;28;20313;-55
2021/10/17 06:56:27;;;;;;;14.97;13.50;;;9.30;99.90;;;;;;4951670;28;20212;-56
2021/10/17 06:58:53;;;;;;;14.80;13.20;;;9.30;99.90;;;;;;4951590;29;20204;-56
2021/10/17 07:01:18;;;;;;;15.17;13.17;;;9.50;99.90;;;;;;4948154;28;20193;-55
2021/10/17 07:03:44;;;;;;;13.90;12.60;;;9.50;99.90;;;;;;4951709;28;20189;-56
2021/10/17 07:06:10;;;;;;;15.40;13.57;;;9.40;99.90;;;;;;4949472;28;20255;-56
2021/10/17 07:08:35;;;;;;;15.50;13.93;;;9.30;99.90;;;;;;4950709;29;20686;-56
2021/10/17 07:11:01;;;;;;;15.17;13.47;;;9.50;99.90;;;;;;4953333;28;20217;-55
2021/10/17 07:13:26;;;;;;;15.50;13.90;;;9.70;99.90;;;;;;4948528;28;20193;-56
2021/10/17 07:15:52;;;;;;;14.80;13.30;;;9.50;99.90;;;;;;4966624;28;20178;-56
2021/10/17 07:18:18;;;;;;;15.13;13.70;;;9.80;99.90;;;;;;4950308;29;20208;-55
2021/10/17 07:20:44;;;;;;;14.53;13.13;;;9.90;99.90;;;;;;4951744;28;20284;-55
2021/10/17 07:23:09;;;;;;;13.40;12.00;;;9.90;99.90;;;;;;4949922;28;20677;-55
2021/10/17 07:25:35;;;;;;;16.13;14.50;;;9.60;99.90;;;;;;4948457;28;20282;-55
2021/10/17 07:28:01;;;;;;;16.50;13.67;;;10.00;99.90;;;;;;4951449;29;20189;-55
2021/10/17 07:30:27;;;;;;;14.82;13.40;;;9.40;99.90;;;;;;4950244;28;20205;-56
2021/10/17 07:32:53;;;;;;;15.63;14.00;;;9.90;99.90;;;;;;4950174;29;20189;-53
2021/10/17 07:35:19;;;;;;;15.27;13.43;;;9.90;99.90;;;;;;4951741;29;20651;-54
2021/10/17 07:37:45;;;;;;;18.30;14.00;;;9.40;99.90;;;;;;4948269;28;20199;-54
2021/10/17 07:40:11;;;;;;;16.40;14.70;;;9.20;99.90;;;;;;4946100;28;20212;-53
2021/10/17 07:42:37;;;;;;;15.73;13.75;;;9.50;99.90;;;;;;4948838;28;20423;-53
2021/10/17 07:45:03;;;;;;;15.70;13.40;;;9.60;99.90;;;;;;4950007;28;20224;-53
2021/10/17 07:47:32;;;;;;;15.40;13.60;;;10.10;99.90;;;;;;4949203;28;20244;-53
2021/10/17 07:49:58;;;;;;;16.55;14.30;;;9.90;99.90;;;;;;4946515;29;20314;-53
2021/10/17 07:52:23;;;;;;;16.47;14.70;;;9.80;99.90;;;;;;4946062;28;20212;-53
2021/10/17 07:54:49;;;;;;;16.50;14.43;;;9.80;99.90;;;;;;4947230;28;20189;-53
2021/10/17 07:57:15;;;;;;;16.30;14.60;;;9.50;99.90;;;;;;4938260;28;20193;-53
2021/10/17 07:59:40;;;;;;;15.67;14.07;;;9.30;99.90;;;;;;4938354;28;20291;-53
2021/10/17 08:02:06;;;;;;;17.63;14.17;;;9.70;99.90;;;;;;4944829;28;20193;-52
2021/10/17 08:04:32;;;;;;;16.17;14.03;;;10.00;99.90;;;;;;4949134;29;20193;-53
2021/10/17 08:06:57;;;;;;;16.50;13.73;;;10.10;99.90;;;;;;4949108;28;20204;-53
2021/10/17 08:09:23;;;;;;;15.00;13.47;;;10.20;99.90;;;;;;4947984;28;20235;-53
2021/10/17 08:11:49;;;;;;;16.40;14.57;;;10.10;99.90;;;;;;4951195;28;20492;-53
2021/10/17 08:14:14;;;;;;;15.73;13.60;;;10.40;99.90;;;;;;4950450;28;20185;-53
2021/10/17 08:16:40;;;;;;;17.60;13.13;;;10.60;99.90;;;;;;4944673;28;20189;-53
2021/10/17 08:19:05;;;;;;;14.50;13.00;;;10.40;99.90;;;;;;4951273;29;20678;-53
2021/10/17 08:21:31;;;;;;;16.30;14.07;;;10.50;99.90;;;;;;4949204;28;20192;-54
2021/10/17 08:23:58;;;;;;;16.07;13.90;;;10.50;99.90;;;;;;4949275;28;20687;-53
2021/10/17 08:26:23;;;;;;;14.73;13.30;;;10.20;99.90;;;;;;4948856;28;20249;-52
2021/10/17 08:28:49;;;;;;;17.87;15.97;;;10.30;99.90;;;;;;4948787;28;20207;-53
2021/10/17 08:31:15;;;;;;;16.53;14.37;;;10.10;99.90;;;;;;4946842;28;20213;-54
2021/10/17 08:33:41;;;;;;;15.18;13.57;;;10.30;99.90;;;;;;4947362;28;20185;-54
2021/10/17 08:36:06;;;;;;;15.30;12.90;;;10.40;99.90;;;;;;4950407;28;20185;-54
2021/10/17 08:38:34;;;;;;;15.53;13.17;;;10.50;99.90;;;;;;4954956;28;20468;-53
2021/10/17 08:41:00;;;;;;;16.25;14.45;;;10.60;99.90;;;;;;4953009;28;20180;-53
2021/10/17 08:43:26;;;;;;;16.83;15.13;;;10.60;99.90;;;;;;4951532;28;20292;-53
2021/10/17 08:45:51;;;;;;;14.47;12.97;;;10.30;99.90;;;;;;4954669;28;20449;-53
2021/10/17 08:48:17;;;;;;;15.40;13.73;;;10.70;99.90;;;;;;4953557;29;20953;-54
2021/10/17 08:50:44;;;;;;;16.00;13.85;;;10.90;99.90;;;;;;4954802;29;20264;-54
2021/10/17 08:53:10;;;;;;;15.20;13.30;;;10.90;99.90;;;;;;4953852;28;20192;-54
2021/10/17 08:55:35;;;;;;;15.27;13.57;;;10.90;99.90;;;;;;4953387;28;20182;-54
2021/10/17 08:58:01;;;;;;;14.10;12.63;;;11.00;99.90;;;;;;4951528;29;20189;-54
2021/10/17 09:00:35;;;;;;;14.53;12.87;;;11.10;99.90;;;;;;4953041;28;20211;-53
2021/10/17 09:03:01;;;;;;;15.52;13.88;;;11.00;99.90;;;;;;4954025;28;20187;-53
2021/10/17 09:05:38;;;;;;;14.55;13.05;;;11.30;99.90;;;;;;4952731;29;20288;-53
2021/10/17 09:08:05;;;;;;;15.90;13.93;;;10.80;99.90;;;;;;4949626;28;20280;-54
2021/10/17 09:10:31;;;;;;;14.85;13.43;;;10.90;99.90;;;;;;4949232;28;20241;-54
2021/10/17 09:13:12;;;;;;;15.32;13.73;;;11.10;99.90;;;;;;4950492;28;20189;-54
2021/10/17 09:15:39;;;;;;;15.73;14.07;;;11.00;99.90;;;;;;4947351;28;20188;-54
2021/10/17 09:18:18;;;;;;;15.98;13.98;;;11.50;99.90;;;;;;4950791;29;20197;-54
2021/10/17 09:20:46;;;;;;;19.30;16.48;;;11.50;99.90;;;;;;4953431;28;20212;-54
2021/10/17 09:23:22;;;;;;;15.48;13.88;;;12.00;99.90;;;;;;4952579;29;20551;-54
2021/10/17 09:25:49;;;;;;;16.67;14.30;;;11.60;99.90;;;;;;4951407;29;20811;-54
2021/10/17 09:28:16;;;;;;;16.45;14.73;;;11.70;99.90;;;;;;4950585;29;20638;-53
2021/10/17 09:30:42;;;;;;;15.05;13.40;;;11.90;99.90;;;;;;4952266;28;20228;-55
2021/10/17 09:33:15;;;;;;;15.38;13.88;;;12.00;99.90;;;;;;4952934;28;20283;-54
2021/10/17 09:35:41;;;;;;;17.05;14.02;;;11.60;99.90;;;;;;4950734;28;20533;-55
2021/10/17 09:38:08;;;;;;;15.50;13.60;;;11.40;99.90;;;;;;4949487;28;20197;-54
2021/10/17 09:40:36;;;;;;;19.15;14.70;;;11.50;99.90;;;;;;4954712;28;20606;-55
2021/10/17 09:43:13;;;;;;;16.00;14.15;;;11.70;99.90;;;;;;4951930;28;20214;-54
2021/10/17 09:45:40;;;;;;;16.08;14.38;;;11.70;99.90;;;;;;4952995;28;20181;-55
2021/10/17 09:48:06;;;;;;;15.75;14.10;;;11.70;99.90;;;;;;4952536;28;20271;-54
2021/10/17 09:50:32;;;;;;;16.05;14.30;;;11.80;99.90;;;;;;4953871;29;20184;-54
2021/10/17 09:53:08;;;;;;;17.33;13.23;;;11.90;99.90;;;;;;4952457;28;20884;-55
2021/10/17 09:55:35;;;;;;;15.25;13.75;;;11.50;99.90;;;;;;4948150;29;20265;-54
2021/10/17 09:58:04;;;;;;;16.80;14.85;;;11.90;99.90;;;;;;4952883;29;20661;-54
2021/10/17 10:00:33;;;;;;;17.77;15.35;;;11.80;99.90;;;;;;4953325;28;20266;-55
2021/10/17 10:03:00;;;;;;;19.15;15.60;;;11.70;99.90;;;;;;4953281;28;20225;-55
2021/10/17 10:05:28;;;;;;;15.80;14.20;;;11.60;99.90;;;;;;4952537;29;20186;-53
2021/10/17 10:07:58;;;;;;;17.60;14.55;;;11.40;99.90;;;;;;4952373;28;20209;-54
2021/10/17 10:10:25;;;;;;;17.02;15.20;;;11.70;99.90;;;;;;4950079;28;20207;-54
2021/10/17 10:12:52;;;;;;;17.80;15.10;;;11.80;99.90;;;;;;4952040;28;20760;-53
2021/10/17 10:15:19;;;;;;;16.23;14.15;;;12.20;99.90;;;;;;4952119;28;20230;-52
2021/10/17 10:17:46;;;;;;;18.42;15.27;;;12.10;99.90;;;;;;4952650;28;20183;-53
2021/10/17 10:20:13;;;;;;;16.23;14.52;;;12.40;99.90;;;;;;4946086;28;20711;-55
2021/10/17 10:22:39;;;;;;;17.55;14.25;;;12.20;99.90;;;;;;4951585;28;20565;-54
2021/10/17 10:25:05;;;;;;;16.45;14.20;;;12.20;99.90;;;;;;4967260;28;20726;-54
2021/10/17 10:27:35;;;;;;;16.33;13.93;;;12.40;99.90;;;;;;4952304;28;20244;-55
2021/10/17 10:30:31;;;;;;;15.98;14.30;;;12.60;99.90;;;;;;4952240;28;20725;-54
2021/10/17 10:33:20;;;;;;;18.90;16.40;;;12.80;99.90;;;;;;4943527;28;20199;-55
2021/10/17 10:36:09;;;;;;;18.27;15.10;;;12.50;99.90;;;;;;4953185;28;20287;-54
2021/10/17 10:38:53;;;;;;;15.02;13.43;;;12.70;99.90;;;;;;4952236;28;20531;-53
2021/10/17 10:41:28;;;;;;;16.15;13.75;;;12.80;99.90;;;;;;4946448;28;20191;-51
2021/10/17 10:44:14;;;;;;;19.00;14.60;;;12.80;99.90;;;;;;4949957;29;20262;-55
2021/10/17 10:46:41;;;;;;;17.45;15.73;;;13.00;99.90;;;;;;4949004;28;20922;-55
2021/10/17 10:49:07;;;;;;;17.42;15.52;;;13.10;99.90;;;;;;4951820;28;20220;-55
2021/10/17 10:51:49;;;;;;;17.15;15.40;;;13.40;99.90;;;;;;4952397;28;20209;-55
2021/10/17 10:54:29;;;;;;;18.60;16.00;;;13.10;99.90;;;;;;4952338;28;20243;-54
2021/10/17 10:56:56;;;;;;;17.25;15.52;;;13.30;99.90;;;;;;4952988;28;20177;-52
2021/10/17 10:59:25;;;;;;;17.35;15.30;;;13.20;99.90;;;;;;4951510;29;20224;-51
2021/10/17 11:02:24;;;;;;;17.23;15.45;;;13.50;99.90;;;;;;4950873;28;20595;-51
2021/10/17 11:04:50;;;;;;;17.25;15.40;;;13.70;99.90;;;;;;4945131;29;20205;-51
2021/10/17 11:07:33;;;;;;;17.43;15.00;;;13.90;99.90;;;;;;4952041;28;20193;-50
2021/10/17 11:10:25;;;;;;;17.00;15.20;;;13.90;99.90;;;;;;4951848;28;20597;-51
2021/10/17 11:13:01;;;;;;;20.45;17.80;;;14.00;99.90;;;;;;4952457;28;20215;-51
2021/10/17 11:15:33;;;;;;;17.75;15.95;;;14.10;99.90;;;;;;4949966;28;20188;-51
2021/10/17 11:18:10;;;;;;;19.10;17.00;;;13.60;99.90;;;;;;4952525;28;20717;-51
2021/10/17 11:20:42;;;;;;;19.52;17.42;;;13.40;99.90;;;;;;4949798;28;20722;-50
2021/10/17 11:23:20;;;;;;;17.98;16.15;;;13.30;99.90;;;;;;4951375;29;20202;-51
2021/10/17 11:25:54;;;;;;;19.88;17.13;;;13.20;99.90;;;;;;4951992;29;20210;-51
2021/10/17 11:28:22;;;;;;;23.23;17.23;;;12.90;99.90;;;;;;4951979;29;20183;-51
2021/10/17 11:30:48;;;;;;;19.08;16.10;;;12.90;99.90;;;;;;4951057;28;20205;-50
2021/10/17 11:33:21;;;;;;;18.60;16.23;;;12.40;99.90;;;;;;4952073;29;20190;-51
2021/10/17 11:35:48;;;;;;;18.00;16.08;;;12.30;99.90;;;;;;4953933;28;20437;-51
2021/10/17 11:38:16;;;;;;;17.65;15.13;;;12.50;99.90;;;;;;4950763;29;20663;-51
2021/10/17 11:40:42;;;;;;;20.63;16.80;;;12.20;99.90;;;;;;4950046;28;20505;-51
2021/10/17 11:43:09;;;;;;;19.40;16.17;;;12.50;99.90;;;;;;4951041;28;20187;-51
2021/10/17 11:45:40;;;;;;;20.05;16.30;;;12.00;99.90;;;;;;4951639;28;20782;-51
2021/10/17 11:48:12;;;;;;;18.55;16.60;;;11.90;99.90;;;;;;4951604;28;20324;-51
2021/10/17 11:50:40;;;;;;;18.95;16.15;;;12.00;99.90;;;;;;4951614;29;20188;-51
2021/10/17 11:53:14;;;;;;;18.10;15.20;;;12.00;99.90;;;;;;4952120;28;20193;-52
2021/10/17 11:55:52;;;;;;;18.88;16.02;;;12.00;99.90;;;;;;4950919;28;20189;-52
2021/10/17 11:58:21;;;;;;;19.70;15.63;;;12.40;99.90;;;;;;4949943;29;20277;-52
2021/10/17 12:00:49;;;;;;;17.23;15.40;;;12.20;99.90;;;;;;4952149;28;20186;-52
2021/10/17 12:03:22;;;;;;;16.38;14.70;;;12.30;99.90;;;;;;4951775;29;20672;-51
2021/10/17 12:05:50;;;;;;;17.55;14.50;;;12.40;99.90;;;;;;4951230;28;20206;-51
2021/10/17 12:08:24;;;;;;;16.95;15.25;;;12.40;99.90;;;;;;4950718;28;20648;-52
2021/10/17 12:10:57;;;;;;;18.90;15.00;;;12.50;99.90;;;;;;4952130;28;20189;-52
2021/10/17 12:13:23;;;;;;;17.15;14.85;;;12.50;99.90;;;;;;4966309;28;20191;-51
2021/10/17 12:16:04;;;;;;;16.95;15.20;;;12.60;99.90;;;;;;4951673;28;20695;-51
2021/10/17 12:18:31;;;;;;;16.35;14.65;;;12.90;99.90;;;;;;4951283;29;20214;-51
2021/10/17 12:20:57;;;;;;;17.13;15.32;;;12.90;99.90;;;;;;4951332;28;20197;-52
2021/10/17 12:23:23;;;;;;;19.10;15.75;;;13.10;99.90;;;;;;4951498;28;20195;-51
2021/10/17 12:25:49;;;;;;;18.83;14.98;;;13.10;99.90;;;;;;4950397;28;20215;-51
2021/10/17 12:28:19;;;;;;;20.10;16.20;;;12.90;99.90;;;;;;4949383;28;20190;-50
2021/10/17 12:30:51;;;;;;;18.90;15.57;;;12.80;99.90;;;;;;4948721;28;20494;-51
2021/10/17 12:33:28;;;;;;;21.02;15.32;;;13.00;99.90;;;;;;4950284;28;20195;-52